Donna Nook, United Kingdom
Current Conditions -  °F | °C
As of 1:50 PM on Thursday 30 Oct 2014 (Local Time) from EGXS Reporting Station
Haze Haze  
Wind Chill: 61°   Ceiling: 2500
Heat Index: 61°   Visibility: 4mi
Dew Point: 57°   Wind: 9mph
Humidity: 88%   Direction: 190°S
Pressure: 30"   Gusts: NA
Location:  53.47°N, 0.15°E
Report Text: EGXS 301350Z 19008KT 7000 HZ FEW012 BKN025 BKN036 16/14 Q1016 WHT
Loading
Personal Weather Stations






























Interactive Weather Map
Tropical Storm Tracking
New forecast layout! Learn more

10-Day Weather Forecast

Advertisements
Track Severe Weather on mobile